Time;durP1;ratioP1;P1;durP2;ratioP2;P2;SDS_P1;SDS_P2;PMS_P1;PMS_P2;Temp;Humidity;BMP_temperature;BMP_pressure;BME280_temperature;BME280_humidity;BME280_pressure;Samples;Min_cycle;Max_cycle;Signal;HPM_P1;HPM_P2
2021/09/20 00:00:19;;;;;;;13.77;7.68;;;;;;;;;;4991769;28;20072;-69
2021/09/20 00:02:46;;;;;;;12.88;8.90;;;;;;;;;;4992427;28;20511;-69
2021/09/20 00:05:13;;;;;;;12.43;7.95;;;;;;;;;;4991696;28;20057;-69
2021/09/20 00:07:41;;;;;;;14.52;8.88;;;;;;;;;;4992438;28;20053;-69
2021/09/20 00:10:10;;;;;;;13.07;8.07;;;;;;;;;;4995478;28;20054;-69
2021/09/20 00:12:37;;;;;;;13.15;8.50;;;;;;;;;;4995594;28;20052;-69
2021/09/20 00:15:06;;;;;;;13.02;7.80;;;;;;;;;;4995262;28;20056;-69
2021/09/20 00:17:35;;;;;;;11.43;7.82;;;;;;;;;;4995746;28;20137;-68
2021/09/20 00:20:02;;;;;;;13.52;8.18;;;;;;;;;;4995586;28;20487;-68
2021/09/20 00:22:29;;;;;;;14.95;8.27;;;;;;;;;;4995813;28;20418;-69
2021/09/20 00:24:56;;;;;;;15.57;8.27;;;;;;;;;;4995268;28;20447;-68
2021/09/20 00:27:23;;;;;;;13.65;8.90;;;;;;;;;;4995495;28;20072;-68
2021/09/20 00:29:52;;;;;;;14.52;8.15;;;;;;;;;;4995275;28;20412;-69
2021/09/20 00:32:19;;;;;;;15.82;8.73;;;;;;;;;;4995322;28;20082;-69
2021/09/20 00:34:47;;;;;;;14.65;9.18;;;;;;;;;;4994985;28;20080;-68
2021/09/20 00:37:14;;;;;;;16.75;8.90;;;;;;;;;;4995195;28;20054;-68
2021/09/20 00:39:41;;;;;;;16.05;8.85;;;;;;;;;;4995090;28;20133;-68
2021/09/20 00:42:09;;;;;;;18.40;9.48;;;;;;;;;;4994977;28;20047;-68
2021/09/20 00:44:36;;;;;;;14.93;9.52;;;;;;;;;;4994824;28;20054;-68
2021/09/20 00:47:03;;;;;;;17.65;9.05;;;;;;;;;;4995016;28;20057;-68
2021/09/20 00:49:30;;;;;;;14.68;8.68;;;;;;;;;;4994907;28;20050;-71
2021/09/20 00:51:59;;;;;;;13.95;8.70;;;;;;;;;;4995008;28;20133;-68
2021/09/20 00:54:26;;;;;;;16.92;8.90;;;;;;;;;;4994880;28;20046;-69
2021/09/20 00:56:53;;;;;;;14.88;8.90;;;;;;;;;;4994589;28;20054;-68
2021/09/20 00:59:21;;;;;;;17.65;9.57;;;;;;;;;;4994955;28;20050;-69
2021/09/20 01:01:48;;;;;;;16.50;9.20;;;;;;;;;;5034371;22;20059;-67
2021/09/20 01:04:15;;;;;;;15.18;9.23;;;;;;;;;;5053852;28;20467;-67
2021/09/20 01:06:42;;;;;;;15.32;9.73;;;;;;;;;;5053996;28;20059;-68
2021/09/20 01:09:11;;;;;;;16.67;9.35;;;;;;;;;;5053794;28;20132;-68
2021/09/20 01:11:38;;;;;;;16.73;9.98;;;;;;;;;;5053582;28;20567;-68
2021/09/20 01:14:05;;;;;;;15.73;9.20;;;;;;;;;;5053276;28;20045;-68
2021/09/20 01:16:32;;;;;;;18.00;10.35;;;;;;;;;;5053874;28;20473;-68
2021/09/20 01:18:59;;;;;;;17.27;9.70;;;;;;;;;;5053726;28;20502;-66
2021/09/20 01:21:26;;;;;;;17.05;9.95;;;;;;;;;;5053480;28;20398;-67
2021/09/20 01:23:55;;;;;;;16.52;9.23;;;;;;;;;;5053506;28;20552;-68
2021/09/20 01:26:22;;;;;;;16.67;9.95;;;;;;;;;;5053500;28;20136;-68
2021/09/20 01:28:49;;;;;;;16.45;9.18;;;;;;;;;;5053482;28;20408;-67
2021/09/20 01:31:16;;;;;;;17.00;9.85;;;;;;;;;;5053427;28;20047;-67
2021/09/20 01:33:43;;;;;;;17.10;9.68;;;;;;;;;;5053273;28;20509;-67
2021/09/20 01:36:10;;;;;;;16.55;9.32;;;;;;;;;;5053531;28;20048;-67
2021/09/20 01:38:37;;;;;;;15.73;9.40;;;;;;;;;;5053697;28;20433;-68
2021/09/20 01:41:07;;;;;;;14.95;9.20;;;;;;;;;;5053023;28;20132;-68
2021/09/20 01:43:34;;;;;;;13.68;8.38;;;;;;;;;;5053034;28;20460;-66
2021/09/20 01:46:01;;;;;;;14.73;8.63;;;;;;;;;;5053091;28;20055;-66
2021/09/20 01:48:28;;;;;;;15.05;9.13;;;;;;;;;;5053105;28;20067;-66
2021/09/20 01:50:55;;;;;;;15.48;9.57;;;;;;;;;;5052921;28;20449;-67
2021/09/20 01:53:22;;;;;;;18.10;9.80;;;;;;;;;;5052788;28;20049;-67
2021/09/20 01:55:50;;;;;;;17.23;9.30;;;;;;;;;;5052916;28;20485;-67
2021/09/20 01:58:19;;;;;;;14.30;9.13;;;;;;;;;;5053123;28;20413;-68
2021/09/20 02:00:47;;;;;;;15.88;10.10;;;;;;;;;;5052532;28;20056;-66
2021/09/20 02:03:14;;;;;;;18.08;10.75;;;;;;;;;;5053128;28;20409;-68
2021/09/20 02:05:41;;;;;;;18.60;11.27;;;;;;;;;;5052890;28;20048;-68
2021/09/20 02:08:08;;;;;;;17.13;9.65;;;;;;;;;;5052642;28;20486;-68
2021/09/20 02:10:35;;;;;;;21.33;12.70;;;;;;;;;;5052519;28;20081;-68
2021/09/20 02:13:02;;;;;;;17.88;10.95;;;;;;;;;;5052564;28;20413;-68
2021/09/20 02:15:31;;;;;;;17.58;10.25;;;;;;;;;;5052561;28;20113;-68
2021/09/20 02:17:59;;;;;;;16.80;10.23;;;;;;;;;;5052900;28;20055;-68
2021/09/20 02:20:26;;;;;;;18.90;10.10;;;;;;;;;;5052459;28;20135;-68
2021/09/20 02:22:53;;;;;;;18.08;10.75;;;;;;;;;;5052603;28;20127;-68
2021/09/20 02:25:21;;;;;;;18.23;10.40;;;;;;;;;;5052265;28;20510;-68
2021/09/20 02:27:48;;;;;;;22.42;11.90;;;;;;;;;;5052589;28;20052;-68
2021/09/20 02:30:15;;;;;;;17.00;10.48;;;;;;;;;;5052088;28;20049;-68
2021/09/20 02:32:44;;;;;;;18.73;9.95;;;;;;;;;;5052288;28;20147;-68
2021/09/20 02:35:11;;;;;;;18.83;10.88;;;;;;;;;;5051967;28;20049;-68
2021/09/20 02:37:39;;;;;;;17.65;10.57;;;;;;;;;;5052466;28;20398;-68
2021/09/20 02:40:08;;;;;;;18.55;10.82;;;;;;;;;;5052362;28;20049;-68
2021/09/20 02:42:35;;;;;;;17.77;10.18;;;;;;;;;;5052426;28;20041;-68
2021/09/20 02:45:02;;;;;;;17.85;10.70;;;;;;;;;;5052211;28;20421;-68
2021/09/20 02:47:29;;;;;;;18.50;11.30;;;;;;;;;;5052014;28;20049;-67
2021/09/20 02:49:58;;;;;;;22.75;12.10;;;;;;;;;;5052130;28;20055;-67
2021/09/20 02:52:25;;;;;;;20.05;11.13;;;;;;;;;;5052095;28;20083;-68
2021/09/20 02:54:52;;;;;;;20.23;11.10;;;;;;;;;;5051881;28;20041;-68
2021/09/20 02:57:19;;;;;;;18.83;11.65;;;;;;;;;;5052095;28;20363;-67
2021/09/20 02:59:46;;;;;;;19.80;11.52;;;;;;;;;;5051850;28;20045;-68
2021/09/20 03:02:14;;;;;;;19.17;11.07;;;;;;;;;;5051598;28;20041;-66
2021/09/20 03:04:41;;;;;;;19.92;11.30;;;;;;;;;;5051827;28;20049;-66
2021/09/20 03:07:10;;;;;;;21.42;10.75;;;;;;;;;;5051777;28;20052;-66
2021/09/20 03:09:37;;;;;;;20.58;11.80;;;;;;;;;;5051732;28;20059;-68
2021/09/20 03:12:04;;;;;;;18.83;10.85;;;;;;;;;;5051729;28;20056;-69
2021/09/20 03:14:31;;;;;;;23.40;12.45;;;;;;;;;;5051563;28;20045;-68
2021/09/20 03:16:59;;;;;;;20.63;11.45;;;;;;;;;;5051567;28;20048;-68
2021/09/20 03:19:25;;;;;;;18.35;10.05;;;;;;;;;;5051614;28;20051;-68
2021/09/20 03:21:53;;;;;;;19.05;9.85;;;;;;;;;;5051672;28;20424;-68
2021/09/20 03:24:21;;;;;;;20.60;11.70;;;;;;;;;;5051349;28;20045;-68
2021/09/20 03:26:48;;;;;;;24.58;12.23;;;;;;;;;;5051991;28;20059;-68
2021/09/20 03:29:15;;;;;;;21.08;11.05;;;;;;;;;;5051351;28;20418;-68
2021/09/20 03:31:42;;;;;;;17.08;10.13;;;;;;;;;;5051415;28;20408;-68
2021/09/20 03:34:09;;;;;;;19.80;11.23;;;;;;;;;;5051306;28;20051;-68
2021/09/20 03:36:36;;;;;;;18.83;10.63;;;;;;;;;;5051419;28;20087;-68
2021/09/20 03:39:05;;;;;;;20.38;10.93;;;;;;;;;;5051485;28;20041;-68
2021/09/20 03:41:33;;;;;;;20.10;10.35;;;;;;;;;;5051563;28;20123;-68
2021/09/20 03:44:00;;;;;;;19.85;11.10;;;;;;;;;;5053911;28;20055;-68
2021/09/20 03:46:27;;;;;;;18.55;11.35;;;;;;;;;;5055622;28;20406;-68
2021/09/20 03:48:54;;;;;;;21.33;11.13;;;;;;;;;;5055358;28;20063;-67
2021/09/20 03:51:21;;;;;;;19.70;10.77;;;;;;;;;;5055308;28;20060;-68
2021/09/20 03:53:48;;;;;;;21.02;11.32;;;;;;;;;;5054884;28;20512;-67
2021/09/20 03:56:15;;;;;;;21.38;11.10;;;;;;;;;;5054905;28;20497;-68
2021/09/20 03:58:44;;;;;;;18.55;11.18;;;;;;;;;;5055371;28;20416;-68
2021/09/20 04:01:11;;;;;;;19.92;11.38;;;;;;;;;;5054946;28;20048;-68
2021/09/20 04:03:38;;;;;;;19.30;11.70;;;;;;;;;;5054666;28;20132;-68
2021/09/20 04:06:05;;;;;;;20.88;11.50;;;;;;;;;;5055125;28;20052;-67
2021/09/20 04:08:32;;;;;;;20.50;11.65;;;;;;;;;;5054952;28;20044;-68
2021/09/20 04:10:59;;;;;;;19.08;11.07;;;;;;;;;;5054870;28;20131;-68
2021/09/20 04:13:26;;;;;;;21.85;11.95;;;;;;;;;;5054470;28;20071;-68
2021/09/20 04:15:56;;;;;;;19.30;10.38;;;;;;;;;;5054716;28;20053;-68
2021/09/20 04:18:23;;;;;;;21.10;11.25;;;;;;;;;;5054682;28;20140;-67
2021/09/20 04:20:51;;;;;;;19.13;10.73;;;;;;;;;;5054508;28;20084;-67
2021/09/20 04:23:19;;;;;;;17.65;10.65;;;;;;;;;;5054201;28;20049;-68
2021/09/20 04:25:47;;;;;;;18.38;10.82;;;;;;;;;;5054641;28;20075;-68
2021/09/20 04:28:14;;;;;;;21.52;11.73;;;;;;;;;;5054693;28;20051;-68
2021/09/20 04:30:43;;;;;;;19.08;11.15;;;;;;;;;;5054497;28;20059;-68
2021/09/20 04:33:12;;;;;;;19.58;11.20;;;;;;;;;;5054284;28;20044;-68
2021/09/20 04:35:39;;;;;;;20.88;11.88;;;;;;;;;;5054497;28;20040;-68
2021/09/20 04:38:07;;;;;;;20.90;11.82;;;;;;;;;;5054105;28;20056;-68
2021/09/20 04:40:34;;;;;;;21.55;11.68;;;;;;;;;;5054318;28;20098;-67
2021/09/20 04:43:01;;;;;;;20.73;11.73;;;;;;;;;;5054373;28;20505;-67
2021/09/20 04:45:28;;;;;;;20.45;11.32;;;;;;;;;;5054302;28;20527;-67
2021/09/20 04:47:56;;;;;;;21.75;11.40;;;;;;;;;;5054383;28;20178;-67
2021/09/20 04:50:24;;;;;;;19.48;11.50;;;;;;;;;;5054238;28;20056;-67
2021/09/20 04:52:52;;;;;;;19.50;11.95;;;;;;;;;;5054145;28;20055;-68
2021/09/20 04:55:19;;;;;;;18.27;11.63;;;;;;;;;;5053441;28;20049;-67
2021/09/20 04:57:46;;;;;;;20.65;11.00;;;;;;;;;;5054158;28;20055;-67
2021/09/20 05:00:14;;;;;;;18.00;9.75;;;;;;;;;;5053872;28;20441;-67
2021/09/20 05:02:41;;;;;;;18.13;10.75;;;;;;;;;;5053741;28;20055;-68
2021/09/20 05:05:10;;;;;;;20.13;10.80;;;;;;;;;;5053717;28;20547;-68
2021/09/20 05:07:38;;;;;;;21.80;11.80;;;;;;;;;;5054077;28;20088;-68
2021/09/20 05:10:06;;;;;;;22.30;12.60;;;;;;;;;;5053990;28;20545;-68
2021/09/20 05:12:33;;;;;;;20.50;11.00;;;;;;;;;;5053733;28;20055;-68
2021/09/20 05:15:00;;;;;;;24.02;12.85;;;;;;;;;;5053894;28;20051;-68
2021/09/20 05:17:27;;;;;;;21.48;11.27;;;;;;;;;;5053603;28;20044;-68
2021/09/20 05:19:54;;;;;;;20.23;11.77;;;;;;;;;;5053579;28;20045;-68
2021/09/20 05:22:21;;;;;;;22.67;11.82;;;;;;;;;;5053753;28;20045;-67
2021/09/20 05:24:49;;;;;;;20.40;11.57;;;;;;;;;;5053379;28;20133;-67
2021/09/20 05:27:16;;;;;;;20.25;11.95;;;;;;;;;;5053807;28;20076;-68
2021/09/20 05:29:44;;;;;;;20.55;11.63;;;;;;;;;;5053497;28;20055;-72
2021/09/20 05:32:11;;;;;;;22.42;12.57;;;;;;;;;;5054120;28;20084;-68
2021/09/20 05:34:38;;;;;;;21.08;12.27;;;;;;;;;;5053386;28;20486;-67
2021/09/20 05:37:05;;;;;;;23.92;13.57;;;;;;;;;;5053127;28;20048;-68
2021/09/20 05:39:33;;;;;;;20.88;12.88;;;;;;;;;;5053078;28;20140;-68
2021/09/20 05:42:02;;;;;;;20.58;11.55;;;;;;;;;;5053303;28;20049;-69
2021/09/20 05:44:29;;;;;;;26.05;13.50;;;;;;;;;;5053057;28;20104;-67
2021/09/20 05:46:56;;;;;;;27.45;12.98;;;;;;;;;;5053152;28;20512;-68
2021/09/20 05:49:23;;;;;;;23.60;13.38;;;;;;;;;;5052906;28;20437;-68
2021/09/20 05:51:50;;;;;;;21.63;12.77;;;;;;;;;;5053031;28;20127;-68
2021/09/20 05:54:17;;;;;;;24.58;12.63;;;;;;;;;;5052740;28;20129;-68
2021/09/20 05:56:44;;;;;;;19.92;11.13;;;;;;;;;;5052729;28;20156;-68
2021/09/20 05:59:12;;;;;;;23.65;13.10;;;;;;;;;;5052719;28;20060;-68
2021/09/20 06:01:40;;;;;;;24.52;13.25;;;;;;;;;;5052797;28;20076;-67
2021/09/20 06:04:07;;;;;;;22.67;12.35;;;;;;;;;;5052577;28;20053;-68
2021/09/20 06:06:33;;;;;;;22.13;12.20;;;;;;;;;;5051890;28;20133;-67
2021/09/20 06:09:00;;;;;;;23.42;12.95;;;;;;;;;;5051900;28;20055;-68
2021/09/20 06:11:28;;;;;;;24.77;13.30;;;;;;;;;;5052682;28;20460;-67
2021/09/20 06:13:57;;;;;;;24.42;13.27;;;;;;;;;;5052369;28;20516;-67
2021/09/20 06:16:26;;;;;;;21.40;11.85;;;;;;;;;;5052703;28;20045;-66
2021/09/20 06:18:53;;;;;;;21.33;11.95;;;;;;;;;;5052564;28;20044;-68
2021/09/20 06:21:20;;;;;;;25.00;14.00;;;;;;;;;;5052646;28;20131;-68
2021/09/20 06:23:47;;;;;;;24.55;13.32;;;;;;;;;;5052629;28;20052;-68
2021/09/20 06:26:14;;;;;;;23.95;12.82;;;;;;;;;;5052457;28;20079;-69
2021/09/20 06:28:41;;;;;;;22.15;13.60;;;;;;;;;;5052377;28;20051;-66
2021/09/20 06:31:08;;;;;;;22.83;13.13;;;;;;;;;;5052168;28;20045;-66
2021/09/20 06:33:36;;;;;;;21.63;12.05;;;;;;;;;;5052138;28;20080;-68
2021/09/20 06:36:04;;;;;;;23.02;12.05;;;;;;;;;;5052339;28;20127;-66
2021/09/20 06:38:31;;;;;;;24.10;11.75;;;;;;;;;;5036098;28;20051;-66
2021/09/20 06:40:58;;;;;;;23.90;13.38;;;;;;;;;;5051923;28;20049;-68
2021/09/20 06:43:26;;;;;;;24.63;11.57;;;;;;;;;;5052338;28;20049;-70
2021/09/20 06:45:53;;;;;;;25.30;12.85;;;;;;;;;;5052564;28;20422;-67
2021/09/20 06:48:20;;;;;;;38.17;19.65;;;;;;;;;;5052121;28;20072;-67
2021/09/20 06:50:49;;;;;;;26.92;13.70;;;;;;;;;;5051848;28;20044;-67
2021/09/20 06:53:16;;;;;;;21.45;11.13;;;;;;;;;;5052108;28;20154;-67
2021/09/20 06:55:43;;;;;;;25.25;13.50;;;;;;;;;;5051493;28;20056;-67
2021/09/20 06:58:13;;;;;;;24.20;13.45;;;;;;;;;;5051756;28;20122;-67
2021/09/20 07:00:40;;;;;;;30.02;14.80;;;;;;;;;;5051522;28;20048;-68
2021/09/20 07:03:07;;;;;;;27.63;13.05;;;;;;;;;;5051865;28;20041;-67
2021/09/20 07:05:34;;;;;;;29.17;15.80;;;;;;;;;;5048805;28;20510;-67
2021/09/20 07:08:02;;;;;;;24.30;13.38;;;;;;;;;;5049845;28;20401;-68
2021/09/20 07:10:29;;;;;;;38.47;20.67;;;;;;;;;;5050060;28;20053;-66
2021/09/20 07:12:56;;;;;;;32.75;15.93;;;;;;;;;;5049777;28;20049;-68
2021/09/20 07:15:23;;;;;;;30.15;16.63;;;;;;;;;;5050124;28;20152;-67
2021/09/20 07:17:50;;;;;;;24.90;12.75;;;;;;;;;;5053908;28;20049;-67
2021/09/20 07:20:17;;;;;;;23.95;12.27;;;;;;;;;;5056267;28;20048;-67
2021/09/20 07:22:44;;;;;;;20.90;12.25;;;;;;;;;;5056233;28;20059;-67
2021/09/20 07:25:14;;;;;;;28.17;13.90;;;;;;;;;;5056371;28;20053;-67
2021/09/20 07:27:41;;;;;;;24.92;13.20;;;;;;;;;;5056524;28;20448;-65
2021/09/20 07:30:14;;;;;;;21.85;11.48;;;;;;;;;;5056433;28;20045;-67
2021/09/20 07:32:41;;;;;;;37.28;20.58;;;;;;;;;;5056894;28;20509;-68
2021/09/20 07:35:10;;;;;;;25.73;12.93;;;;;;;;;;5055747;28;20136;-67
2021/09/20 07:37:37;;;;;;;21.17;11.40;;;;;;;;;;5056431;28;20500;-68
2021/09/20 07:40:05;;;;;;;24.77;11.82;;;;;;;;;;5056316;28;20413;-66
2021/09/20 07:42:33;;;;;;;22.73;11.10;;;;;;;;;;5056027;28;20132;-66
2021/09/20 07:45:00;;;;;;;26.75;14.27;;;;;;;;;;5056463;28;20512;-69
2021/09/20 07:47:27;;;;;;;22.88;11.73;;;;;;;;;;5056535;28;20148;-69
2021/09/20 07:49:54;;;;;;;22.20;11.75;;;;;;;;;;5056837;28;20041;-68
2021/09/20 07:52:22;;;;;;;23.67;12.80;;;;;;;;;;5056431;28;20057;-68
2021/09/20 07:54:49;;;;;;;25.55;13.05;;;;;;;;;;5056529;28;20080;-68
2021/09/20 07:57:16;;;;;;;23.92;12.25;;;;;;;;;;5055663;28;20406;-68
2021/09/20 07:59:45;;;;;;;34.55;18.33;;;;;;;;;;5056284;28;20045;-68
2021/09/20 08:02:12;;;;;;;29.17;14.73;;;;;;;;;;5055955;28;20055;-68
2021/09/20 08:04:39;;;;;;;23.05;13.32;;;;;;;;;;5056016;28;20051;-68
2021/09/20 08:07:06;;;;;;;32.88;17.13;;;;;;;;;;5056274;28;20045;-68
2021/09/20 08:09:33;;;;;;;24.95;14.10;;;;;;;;;;5055761;28;20060;-68
2021/09/20 08:12:01;;;;;;;24.15;12.25;;;;;;;;;;5056365;28;20395;-68
2021/09/20 08:14:28;;;;;;;23.83;12.50;;;;;;;;;;5056145;28;20249;-68
2021/09/20 08:16:56;;;;;;;27.10;12.75;;;;;;;;;;5055270;28;20051;-68
2021/09/20 08:19:23;;;;;;;24.63;11.57;;;;;;;;;;5056123;28;20067;-68
2021/09/20 08:21:50;;;;;;;25.33;12.15;;;;;;;;;;5055911;28;20048;-67
2021/09/20 08:24:17;;;;;;;21.08;10.73;;;;;;;;;;5055979;28;20104;-67
2021/09/20 08:26:44;;;;;;;22.60;10.55;;;;;;;;;;5055969;28;20569;-68
2021/09/20 08:29:11;;;;;;;18.58;10.75;;;;;;;;;;5053745;28;20569;-67
2021/09/20 08:31:39;;;;;;;23.23;12.35;;;;;;;;;;5053052;28;20367;-68
2021/09/20 08:34:07;;;;;;;23.63;11.93;;;;;;;;;;5052876;28;20041;-66
2021/09/20 08:36:34;;;;;;;21.38;10.88;;;;;;;;;;5052087;28;20049;-65
2021/09/20 08:39:01;;;;;;;18.75;9.50;;;;;;;;;;5053092;28;20041;-67
2021/09/20 08:41:29;;;;;;;20.25;9.38;;;;;;;;;;5052291;28;20055;-66
2021/09/20 08:43:56;;;;;;;17.83;9.82;;;;;;;;;;5051915;28;20055;-67
2021/09/20 08:46:23;;;;;;;14.80;8.63;;;;;;;;;;5052045;28;20124;-66
2021/09/20 08:48:52;;;;;;;15.63;8.90;;;;;;;;;;5052497;28;20044;-65
2021/09/20 08:51:21;;;;;;;14.93;8.10;;;;;;;;;;5052119;28;20477;-65
2021/09/20 08:53:50;;;;;;;16.63;9.30;;;;;;;;;;5051908;28;20132;-66
2021/09/20 08:56:18;;;;;;;14.33;7.90;;;;;;;;;;5052218;28;20505;-66
2021/09/20 08:58:45;;;;;;;16.38;9.55;;;;;;;;;;5051809;28;20041;-66
2021/09/20 09:01:12;;;;;;;18.45;9.60;;;;;;;;;;5051501;28;20052;-66
2021/09/20 09:03:39;;;;;;;20.00;10.77;;;;;;;;;;5051687;28;20044;-66
2021/09/20 09:06:06;;;;;;;14.02;7.72;;;;;;;;;;5052358;28;20498;-66
2021/09/20 09:08:36;;;;;;;15.55;8.07;;;;;;;;;;5051542;28;20049;-66
2021/09/20 09:11:05;;;;;;;19.92;7.75;;;;;;;;;;5051119;28;20441;-65
2021/09/20 09:13:37;;;;;;;16.27;7.50;;;;;;;;;;5051438;28;20413;-66
2021/09/20 09:16:16;;;;;;;13.75;7.30;;;;;;;;;;5051287;28;20057;-66
2021/09/20 09:19:01;;;;;;;14.52;6.68;;;;;;;;;;5051554;28;20494;-66
2021/09/20 09:21:30;;;;;;;12.27;6.90;;;;;;;;;;5051106;28;20053;-66
2021/09/20 09:24:04;;;;;;;14.27;8.05;;;;;;;;;;5050990;28;20055;-66
2021/09/20 09:26:31;;;;;;;15.98;7.47;;;;;;;;;;5050870;28;20049;-67
2021/09/20 09:29:07;;;;;;;15.57;8.43;;;;;;;;;;5051479;28;20041;-67
2021/09/20 09:31:36;;;;;;;15.98;8.10;;;;;;;;;;5050926;28;20056;-67
2021/09/20 09:34:16;;;;;;;26.02;15.07;;;;;;;;;;5051041;28;20359;-67
2021/09/20 09:36:43;;;;;;;18.05;9.55;;;;;;;;;;5050953;28;20053;-66
2021/09/20 09:39:12;;;;;;;20.45;9.18;;;;;;;;;;5051395;28;20501;-66
2021/09/20 09:41:41;;;;;;;19.73;11.18;;;;;;;;;;5049760;28;20081;-67
2021/09/20 09:44:10;;;;;;;23.80;15.02;;;;;;;;;;5051110;28;20283;-66
2021/09/20 09:46:39;;;;;;;17.70;9.75;;;;;;;;;;5050804;28;20140;-67
2021/09/20 09:49:14;;;;;;;12.63;7.07;;;;;;;;;;5051158;28;20402;-67
2021/09/20 09:51:59;;;;;;;13.45;7.45;;;;;;;;;;5050667;28;20494;-67
2021/09/20 09:54:34;;;;;;;11.48;6.28;;;;;;;;;;5050508;28;20063;-67
2021/09/20 09:57:19;;;;;;;12.68;6.82;;;;;;;;;;5050760;28;20052;-66
2021/09/20 09:59:56;;;;;;;11.63;6.30;;;;;;;;;;5050641;28;20053;-67
2021/09/20 10:02:25;;;;;;;17.00;8.70;;;;;;;;;;5050491;28;20052;-67
2021/09/20 10:04:55;;;;;;;15.13;7.80;;;;;;;;;;5050386;28;20048;-67
2021/09/20 10:07:27;;;;;;;14.23;7.68;;;;;;;;;;5050246;28;20143;-66
2021/09/20 10:09:56;;;;;;;14.18;7.78;;;;;;;;;;5050446;28;20049;-67
2021/09/20 10:12:25;;;;;;;16.85;9.02;;;;;;;;;;5050353;28;20552;-67
2021/09/20 10:14:55;;;;;;;22.77;13.23;;;;;;;;;;5050348;28;20059;-67
2021/09/20 10:17:25;;;;;;;17.60;10.60;;;;;;;;;;5050142;28;20399;-67
2021/09/20 10:19:53;;;;;;;18.45;9.18;;;;;;;;;;5049960;28;20048;-67
2021/09/20 10:22:21;;;;;;;16.52;9.00;;;;;;;;;;5049938;28;20174;-67
2021/09/20 10:24:50;;;;;;;15.05;7.93;;;;;;;;;;5049725;28;20139;-66
2021/09/20 10:27:20;;;;;;;15.30;8.82;;;;;;;;;;5050138;28;20044;-67
2021/09/20 10:29:49;;;;;;;15.88;7.85;;;;;;;;;;5049907;28;20497;-67
2021/09/20 10:32:17;;;;;;;13.77;7.43;;;;;;;;;;5049954;28;20052;-66
2021/09/20 10:34:44;;;;;;;14.73;7.75;;;;;;;;;;5049586;28;20317;-71
2021/09/20 10:37:15;;;;;;;20.77;11.55;;;;;;;;;;5049843;28;20057;-64
2021/09/20 10:39:49;;;;;;;;;;;;;;;;;;5050799;28;20398;-70
2021/09/20 10:43:07;;;;;;;67.65;21.55;;;;;;;;;;5050099;28;19925;-66
2021/09/20 10:45:52;;;;;;;23.58;9.93;;;;;;;;;;5049773;28;20538;-66
2021/09/20 10:48:47;;;;;;;21.08;9.68;;;;;;;;;;5049882;28;20053;-65
2021/09/20 10:51:23;;;;;;;20.50;8.70;;;;;;;;;;5049802;28;20053;-66
2021/09/20 10:54:18;;;;;;;21.25;9.40;;;;;;;;;;5049539;28;20067;-67
2021/09/20 10:56:46;;;;;;;18.83;8.93;;;;;;;;;;5049587;28;20422;-64
2021/09/20 10:59:16;;;;;;;20.25;10.05;;;;;;;;;;5049367;28;20055;-65
2021/09/20 11:01:54;;;;;;;24.97;10.83;;;;;;;;;;5049560;28;20219;-66
2021/09/20 11:04:27;;;;;;;20.23;10.35;;;;;;;;;;5049305;28;20425;-66
2021/09/20 11:07:06;;;;;;;26.25;13.57;;;;;;;;;;5049879;28;20512;-69
2021/09/20 11:09:46;;;;;;;26.38;12.45;;;;;;;;;;5049434;28;20049;-64
2021/09/20 11:12:20;;;;;;;21.83;11.00;;;;;;;;;;5050030;28;20520;-65
2021/09/20 11:15:00;;;;;;;27.15;15.57;;;;;;;;;;5049320;28;20502;-66
2021/09/20 11:17:39;;;;;;;28.08;15.07;;;;;;;;;;5049557;28;20048;-65
2021/09/20 11:20:27;;;;;;;39.38;21.20;;;;;;;;;;5050171;28;20523;-65
2021/09/20 11:23:24;;;;;;;64.32;36.58;;;;;;;;;;5050386;28;20079;-66
2021/09/20 11:26:11;;;;;;;41.97;23.92;;;;;;;;;;5049821;28;20102;-66
2021/09/20 11:28:40;;;;;;;46.45;25.02;;;;;;;;;;5049695;28;20055;-66
2021/09/20 11:31:08;;;;;;;22.20;11.57;;;;;;;;;;5049167;28;20056;-67
2021/09/20 11:33:41;;;;;;;22.27;10.82;;;;;;;;;;5049916;28;20286;-66
2021/09/20 11:36:34;;;;;;;21.60;10.65;;;;;;;;;;5049730;28;20124;-66
2021/09/20 11:39:16;;;;;;;20.63;9.55;;;;;;;;;;5049629;28;20045;-65
2021/09/20 11:41:46;;;;;;;20.13;10.77;;;;;;;;;;5049593;28;20057;-65
2021/09/20 11:44:14;;;;;;;19.15;10.73;;;;;;;;;;5049729;28;20103;-66
2021/09/20 11:46:41;;;;;;;19.05;10.38;;;;;;;;;;5050155;28;20410;-66
2021/09/20 11:49:12;;;;;;;22.08;10.20;;;;;;;;;;5049792;28;20253;-66
2021/09/20 11:51:39;;;;;;;20.00;10.65;;;;;;;;;;5049925;28;20148;-67
2021/09/20 11:54:07;;;;;;;18.08;9.63;;;;;;;;;;5049569;28;20120;-66
2021/09/20 11:56:34;;;;;;;19.50;9.18;;;;;;;;;;5049700;28;20072;-66
2021/09/20 11:59:02;;;;;;;19.10;9.70;;;;;;;;;;5049509;28;20051;-65
2021/09/20 12:01:29;;;;;;;20.42;10.00;;;;;;;;;;5049758;28;20077;-65
2021/09/20 12:03:58;;;;;;;15.52;8.80;;;;;;;;;;5050335;28;20067;-66
2021/09/20 12:06:31;;;;;;;16.80;8.77;;;;;;;;;;5053536;28;20056;-66
2021/09/20 12:09:01;;;;;;;15.82;8.48;;;;;;;;;;5053287;28;20049;-67
2021/09/20 12:11:29;;;;;;;17.27;8.95;;;;;;;;;;5053147;28;20099;-65
2021/09/20 12:13:56;;;;;;;17.90;10.07;;;;;;;;;;5053130;28;20044;-65
2021/09/20 12:16:25;;;;;;;20.42;11.10;;;;;;;;;;5053524;28;20459;-66
2021/09/20 12:18:52;;;;;;;22.48;10.80;;;;;;;;;;5053002;28;20288;-66
2021/09/20 12:21:19;;;;;;;21.98;10.18;;;;;;;;;;5053127;28;20466;-66
2021/09/20 12:23:50;;;;;;;21.42;9.98;;;;;;;;;;5053358;28;20824;-66
2021/09/20 12:26:20;;;;;;;17.25;10.02;;;;;;;;;;5053251;28;20124;-66
2021/09/20 12:28:53;;;;;;;21.20;11.13;;;;;;;;;;5053738;28;20053;-66
2021/09/20 12:31:22;;;;;;;19.15;9.63;;;;;;;;;;5053740;28;20560;-66
2021/09/20 12:33:56;;;;;;;19.50;10.65;;;;;;;;;;5053524;28;20361;-66
2021/09/20 12:36:27;;;;;;;18.15;10.02;;;;;;;;;;5053256;28;20049;-67
2021/09/20 12:39:09;;;;;;;;;;;;;;;;;;5053797;28;20048;-66
2021/09/20 12:41:39;;;;;;;18.83;9.27;;;;;;;;;;5053335;28;20515;-66
2021/09/20 12:44:08;;;;;;;17.10;10.25;;;;;;;;;;5053158;28;20063;-66
2021/09/20 12:46:36;;;;;;;15.05;9.15;;;;;;;;;;5053372;28;20405;-66
2021/09/20 12:49:05;;;;;;;18.63;10.88;;;;;;;;;;5052811;28;20045;-65
2021/09/20 12:51:36;;;;;;;18.10;10.23;;;;;;;;;;5053099;28;20059;-66
2021/09/20 12:54:15;;;;;;;;;;;;;;;;;;5053206;28;20044;-66
2021/09/20 12:56:44;;;;;;;16.88;8.75;;;;;;;;;;5053171;28;19921;-66
2021/09/20 12:59:13;;;;;;;16.75;9.25;;;;;;;;;;5053048;28;20063;-66
2021/09/20 13:01:54;;;;;;;15.68;10.45;;;;;;;;;;5105793;22;20515;-67
2021/09/20 13:04:30;;;;;;;16.27;9.77;;;;;;;;;;5012238;28;20045;-67
2021/09/20 13:06:59;;;;;;;16.52;9.13;;;;;;;;;;5012474;28;20506;-67
2021/09/20 13:09:26;;;;;;;20.25;12.35;;;;;;;;;;5012359;28;20056;-67
2021/09/20 13:12:04;;;;;;;21.65;11.70;;;;;;;;;;5012447;28;20042;-67
2021/09/20 13:14:32;;;;;;;21.60;12.32;;;;;;;;;;5011498;28;20056;-67
2021/09/20 13:17:07;;;;;;;16.60;9.52;;;;;;;;;;5011750;28;20056;-66
2021/09/20 13:19:34;;;;;;;15.25;8.45;;;;;;;;;;5011585;28;20050;-67
2021/09/20 13:22:04;;;;;;;14.48;8.32;;;;;;;;;;5012759;28;20046;-67
2021/09/20 13:24:33;;;;;;;14.95;8.82;;;;;;;;;;5011727;28;20054;-66
2021/09/20 13:27:02;;;;;;;16.00;9.48;;;;;;;;;;5009397;28;20087;-67
2021/09/20 13:29:29;;;;;;;15.13;9.00;;;;;;;;;;5011726;28;20049;-67
2021/09/20 13:31:56;;;;;;;17.00;9.43;;;;;;;;;;5012026;28;20479;-67
2021/09/20 13:34:23;;;;;;;20.00;10.23;;;;;;;;;;5011415;28;20046;-67
2021/09/20 13:36:50;;;;;;;16.40;8.55;;;;;;;;;;5012074;28;20286;-67
2021/09/20 13:39:18;;;;;;;15.50;7.97;;;;;;;;;;5011725;28;20112;-67
2021/09/20 13:41:46;;;;;;;14.98;8.32;;;;;;;;;;5013468;28;20038;-67
2021/09/20 13:44:14;;;;;;;16.42;9.23;;;;;;;;;;5011794;28;20186;-66
2021/09/20 13:46:41;;;;;;;17.63;9.27;;;;;;;;;;5011881;28;20050;-67
2021/09/20 13:49:08;;;;;;;14.88;9.07;;;;;;;;;;5011826;28;20089;-67
2021/09/20 13:51:36;;;;;;;13.85;8.07;;;;;;;;;;5012810;28;20331;-66
2021/09/20 13:54:08;;;;;;;15.10;8.20;;;;;;;;;;5014248;28;20161;-67
2021/09/20 13:56:36;;;;;;;13.70;8.63;;;;;;;;;;5014363;28;20076;-67
2021/09/20 13:59:03;;;;;;;13.65;7.88;;;;;;;;;;5011539;28;20204;-67
2021/09/20 14:01:32;;;;;;;13.20;8.18;;;;;;;;;;5011085;28;20048;-67
2021/09/20 14:03:59;;;;;;;14.55;8.18;;;;;;;;;;5008166;28;20423;-67
2021/09/20 14:06:26;;;;;;;14.30;8.07;;;;;;;;;;5011377;28;20046;-67
2021/09/20 14:08:53;;;;;;;11.85;7.70;;;;;;;;;;5010600;28;20101;-69
2021/09/20 14:11:20;;;;;;;13.05;7.22;;;;;;;;;;5011274;28;20050;-67
2021/09/20 14:13:48;;;;;;;13.43;8.25;;;;;;;;;;5011274;28;20063;-67
2021/09/20 14:16:16;;;;;;;18.15;10.43;;;;;;;;;;5011834;28;20096;-68
2021/09/20 14:18:44;;;;;;;14.10;7.70;;;;;;;;;;5011168;28;20104;-68
2021/09/20 14:21:12;;;;;;;18.33;8.57;;;;;;;;;;5010842;28;20054;-68
2021/09/20 14:23:39;;;;;;;15.50;8.25;;;;;;;;;;5010157;28;20412;-66
2021/09/20 14:26:06;;;;;;;12.82;8.02;;;;;;;;;;5010634;28;20601;-67
2021/09/20 14:28:33;;;;;;;14.05;8.90;;;;;;;;;;5010982;28;20052;-67
2021/09/20 14:31:00;;;;;;;15.05;7.97;;;;;;;;;;5011222;28;20077;-67
2021/09/20 14:33:27;;;;;;;12.35;7.63;;;;;;;;;;5010262;28;20049;-67